createdAt,value
2022-11-17T00:00:42.473Z,79.00
2022-11-17T00:03:18.446Z,79.10
2022-11-17T00:05:45.313Z,79.00
2022-11-17T00:08:12.394Z,79.00
2022-11-17T00:10:39.234Z,79.00
2022-11-17T00:13:24.821Z,79.00
2022-11-17T00:15:51.679Z,79.00
2022-11-17T00:18:37.147Z,79.00
2022-11-17T00:21:21.167Z,79.30
2022-11-17T00:23:48.670Z,79.30
2022-11-17T00:26:35.950Z,79.20
2022-11-17T00:29:05.098Z,78.70
2022-11-17T00:31:53.273Z,79.50
2022-11-17T00:34:22.959Z,79.60
2022-11-17T00:36:53.082Z,79.80
2022-11-17T00:39:22.731Z,80.00
2022-11-17T00:41:50.086Z,80.00
2022-11-17T00:44:17.299Z,80.10
2022-11-17T00:46:44.595Z,80.30
2022-11-17T00:49:12.671Z,80.40
2022-11-17T00:51:39.552Z,80.60
2022-11-17T00:54:08.318Z,80.70
2022-11-17T00:56:35.146Z,80.70
2022-11-17T00:59:02.245Z,80.80
2022-11-17T01:01:30.155Z,81.00
2022-11-17T01:04:05.615Z,81.10
2022-11-17T01:06:40.018Z,81.20
2022-11-17T01:09:12.915Z,80.90
2022-11-17T01:11:40.886Z,81.40
2022-11-17T01:14:10.994Z,81.50
2022-11-17T01:16:37.900Z,81.60
2022-11-17T01:19:06.113Z,81.70
2022-11-17T01:21:33.201Z,81.80
2022-11-17T01:24:02.146Z,81.70
2022-11-17T01:26:34.129Z,81.70
2022-11-17T01:29:03.403Z,81.70
2022-11-17T01:31:39.868Z,82.10
2022-11-17T01:34:07.918Z,81.60
2022-11-17T01:36:58.778Z,81.60
2022-11-17T01:39:28.644Z,81.70
2022-11-17T01:41:56.524Z,81.70
2022-11-17T01:44:54.680Z,81.60
2022-11-17T01:47:50.575Z,79.50
2022-11-17T01:50:37.187Z,81.70
2022-11-17T01:53:13.106Z,81.10
2022-11-17T01:56:00.833Z,81.30
2022-11-17T01:58:33.606Z,80.90
2022-11-17T02:01:00.515Z,81.20
2022-11-17T02:03:28.470Z,81.60
2022-11-17T02:06:06.323Z,81.80
2022-11-17T02:08:37.314Z,81.60
2022-11-17T02:11:18.995Z,81.60
2022-11-17T02:13:46.237Z,81.80
2022-11-17T02:16:15.630Z,82.00
2022-11-17T02:18:44.894Z,82.10
2022-11-17T02:21:55.126Z,82.20
2022-11-17T02:25:07.894Z,80.70
2022-11-17T02:28:08.537Z,79.90
2022-11-17T02:31:10.534Z,80.20
2022-11-17T02:34:10.869Z,81.10
2022-11-17T02:36:55.310Z,80.20
2022-11-17T02:39:38.660Z,80.90
2022-11-17T02:42:57.201Z,80.40
2022-11-17T02:45:46.929Z,81.10
2022-11-17T02:48:28.184Z,80.10
2022-11-17T02:50:58.177Z,81.70
2022-11-17T02:53:28.205Z,82.20
2022-11-17T02:55:55.458Z,82.30
2022-11-17T02:58:22.265Z,82.20
2022-11-17T03:01:19.476Z,82.10
2022-11-17T03:04:31.389Z,81.40
2022-11-17T03:07:52.064Z,81.30
2022-11-17T03:10:28.185Z,80.20
2022-11-17T03:13:18.563Z,82.00
2022-11-17T03:16:26.260Z,80.80
2022-11-17T03:19:02.060Z,80.10
2022-11-17T03:22:10.770Z,80.90
2022-11-17T03:24:46.968Z,79.70
2022-11-17T03:27:30.724Z,81.20
2022-11-17T03:30:04.425Z,80.30
2022-11-17T03:32:37.705Z,80.50
2022-11-17T03:35:11.516Z,80.00
2022-11-17T03:37:46.321Z,79.70
2022-11-17T03:40:20.544Z,79.50
2022-11-17T03:42:53.822Z,79.70
2022-11-17T03:45:35.532Z,79.90
2022-11-17T03:48:20.345Z,79.80
2022-11-17T03:50:59.481Z,79.80
2022-11-17T03:53:26.453Z,80.30
2022-11-17T03:56:17.493Z,81.00
2022-11-17T03:58:52.886Z,81.00
2022-11-17T04:01:22.790Z,79.30
2022-11-17T04:03:49.730Z,81.30
2022-11-17T04:06:16.579Z,81.60
2022-11-17T04:08:43.723Z,81.90
2022-11-17T04:11:29.072Z,82.00
2022-11-17T04:14:14.443Z,81.90
2022-11-17T04:16:42.227Z,81.90
2022-11-17T04:19:09.193Z,82.00
2022-11-17T04:21:36.006Z,82.10
2022-11-17T04:24:02.986Z,82.10
2022-11-17T04:26:48.126Z,82.20
2022-11-17T04:29:14.988Z,82.30
2022-11-17T04:31:41.814Z,82.40
2022-11-17T04:34:08.801Z,82.60
2022-11-17T04:36:44.666Z,82.60
2022-11-17T04:39:14.778Z,82.60
2022-11-17T04:41:54.618Z,82.70
2022-11-17T04:44:31.419Z,82.90
2022-11-17T04:46:59.430Z,82.70
2022-11-17T04:49:26.647Z,82.80
2022-11-17T04:51:54.336Z,82.70
2022-11-17T04:54:26.951Z,82.50
2022-11-17T04:56:55.430Z,82.30
2022-11-17T04:59:22.797Z,82.10
2022-11-17T05:01:50.248Z,81.80
2022-11-17T05:04:40.802Z,81.40
2022-11-17T05:07:09.202Z,81.30
2022-11-17T05:09:36.419Z,81.40
2022-11-17T05:12:22.067Z,81.70
2022-11-17T05:14:50.330Z,81.80
2022-11-17T05:17:17.742Z,81.80
2022-11-17T05:19:47.641Z,82.10
2022-11-17T05:22:41.923Z,82.20
2022-11-17T05:25:10.073Z,82.30
2022-11-17T05:27:37.089Z,82.60
2022-11-17T05:30:07.624Z,82.70
2022-11-17T05:32:34.982Z,82.80
2022-11-17T05:35:01.888Z,82.80
2022-11-17T05:37:28.699Z,82.80
2022-11-17T05:39:55.519Z,82.90
2022-11-17T05:42:22.346Z,83.10
2022-11-17T05:44:49.153Z,83.30
2022-11-17T05:47:16.365Z,83.40
2022-11-17T05:49:43.299Z,83.40
2022-11-17T05:52:10.275Z,83.30
2022-11-17T05:54:37.128Z,83.40
2022-11-17T05:57:12.257Z,83.40
2022-11-17T06:00:04.412Z,83.00
2022-11-17T06:02:47.236Z,80.70
2022-11-17T06:05:19.795Z,81.50
2022-11-17T06:07:48.283Z,82.80
2022-11-17T06:10:15.240Z,82.90
2022-11-17T06:12:42.045Z,83.00
2022-11-17T06:15:09.831Z,82.80
2022-11-17T06:17:43.084Z,82.20
2022-11-17T06:20:19.878Z,81.80
2022-11-17T06:22:48.776Z,81.40
2022-11-17T06:25:18.833Z,82.00
2022-11-17T06:27:48.697Z,82.10
2022-11-17T06:30:15.834Z,82.10
2022-11-17T06:32:45.046Z,82.30
2022-11-17T06:35:14.518Z,82.40
2022-11-17T06:37:41.353Z,82.40
2022-11-17T06:40:10.081Z,82.60
2022-11-17T06:42:58.005Z,82.60
2022-11-17T06:45:25.204Z,82.60
2022-11-17T06:47:55.537Z,83.00
2022-11-17T06:50:22.366Z,82.60
2022-11-17T06:52:49.279Z,82.90
2022-11-17T06:55:16.251Z,82.80
2022-11-17T06:57:43.275Z,82.80
2022-11-17T07:00:11.249Z,82.50
2022-11-17T07:02:38.303Z,82.10
2022-11-17T07:05:05.750Z,82.10
2022-11-17T07:07:32.715Z,82.10
2022-11-17T07:09:59.702Z,82.30
2022-11-17T07:12:26.657Z,82.50
2022-11-17T07:14:53.536Z,82.40
2022-11-17T07:17:20.418Z,82.70
2022-11-17T07:19:47.262Z,82.90
2022-11-17T07:22:14.124Z,83.20
2022-11-17T07:24:41.112Z,83.40
2022-11-17T07:27:08.108Z,83.50
2022-11-17T07:29:34.998Z,83.70
2022-11-17T07:32:01.900Z,83.90
2022-11-17T07:34:28.788Z,84.10
2022-11-17T07:36:55.681Z,84.20
2022-11-17T07:39:22.529Z,84.30
2022-11-17T07:41:49.421Z,84.40
2022-11-17T07:44:16.286Z,84.80
2022-11-17T07:46:43.181Z,84.40
2022-11-17T07:49:10.056Z,84.20
2022-11-17T07:51:36.905Z,83.90
2022-11-17T07:54:03.947Z,84.00
2022-11-17T07:56:30.784Z,84.00
2022-11-17T07:58:57.728Z,84.30
2022-11-17T08:01:27.370Z,84.50
2022-11-17T08:03:54.962Z,84.50
2022-11-17T08:06:23.895Z,84.50
2022-11-17T08:08:51.290Z,84.60
2022-11-17T08:11:19.328Z,84.30
2022-11-17T08:13:46.527Z,84.20
2022-11-17T08:16:14.349Z,84.20
2022-11-17T08:18:41.651Z,84.10
2022-11-17T08:21:16.113Z,83.90
2022-11-17T08:23:43.282Z,84.10
2022-11-17T08:26:11.723Z,84.30
2022-11-17T08:28:39.525Z,84.50
2022-11-17T08:31:08.111Z,84.70
2022-11-17T08:33:35.188Z,84.70
2022-11-17T08:36:04.287Z,84.30
2022-11-17T08:38:31.486Z,84.20
2022-11-17T08:41:05.312Z,84.30
2022-11-17T08:43:32.979Z,84.70
2022-11-17T08:46:00.134Z,85.20
2022-11-17T08:48:26.998Z,85.40
2022-11-17T08:50:53.868Z,85.70
2022-11-17T08:53:23.348Z,85.70
2022-11-17T08:55:52.001Z,85.40
2022-11-17T08:58:19.223Z,86.00
2022-11-17T09:00:47.696Z,87.20
2022-11-17T09:03:15.451Z,88.70
2022-11-17T09:05:47.127Z,89.00
2022-11-17T09:11:11.821Z,90.60
2022-11-17T09:13:40.843Z,90.30
2022-11-17T09:16:11.589Z,91.20
2022-11-17T09:18:40.813Z,91.30
2022-11-17T09:21:12.057Z,91.70
2022-11-17T09:23:39.808Z,90.80
2022-11-17T09:26:15.821Z,89.60
2022-11-17T09:28:44.604Z,87.60
2022-11-17T09:31:18.708Z,86.30
2022-11-17T09:33:46.563Z,85.90
2022-11-17T09:36:15.976Z,85.40
2022-11-17T09:38:43.638Z,85.70
2022-11-17T09:41:15.586Z,86.70
2022-11-17T09:43:57.636Z,87.00
2022-11-17T09:46:59.768Z,86.50
2022-11-17T09:49:36.542Z,84.80
2022-11-17T09:52:37.829Z,86.20
2022-11-17T09:55:33.953Z,83.30
2022-11-17T09:58:11.180Z,85.10
2022-11-17T10:00:41.832Z,88.50
2022-11-17T10:03:19.925Z,88.20
2022-11-17T10:05:47.999Z,85.40
2022-11-17T10:08:44.980Z,84.60
2022-11-17T10:11:31.756Z,80.60
2022-11-17T10:14:20.699Z,85.40
2022-11-17T10:16:58.092Z,82.90
2022-11-17T10:19:36.733Z,87.80
2022-11-17T10:22:06.355Z,85.50
2022-11-17T10:24:43.626Z,86.00
2022-11-17T10:27:31.159Z,82.80
2022-11-17T10:30:05.297Z,79.40
2022-11-17T10:32:39.332Z,83.30
2022-11-17T10:35:27.531Z,82.00
2022-11-17T10:38:00.156Z,78.60
2022-11-17T10:40:32.222Z,81.40
2022-11-17T10:43:14.353Z,80.40
2022-11-17T10:45:55.076Z,80.80
2022-11-17T10:48:28.345Z,80.30
2022-11-17T10:50:57.903Z,80.70
2022-11-17T10:53:46.562Z,82.40
2022-11-17T10:56:21.561Z,81.70
2022-11-17T10:59:09.625Z,82.50
2022-11-17T11:01:43.305Z,80.60
2022-11-17T11:04:41.399Z,83.40
2022-11-17T11:07:23.821Z,79.10
2022-11-17T11:10:23.665Z,84.80
2022-11-17T11:12:59.954Z,82.20
2022-11-17T11:15:34.788Z,83.10
2022-11-17T11:18:02.086Z,82.50
2022-11-17T11:21:09.684Z,82.90
2022-11-17T11:24:33.863Z,78.20
2022-11-17T11:27:34.624Z,77.50
2022-11-17T11:30:10.730Z,79.40
2022-11-17T11:33:12.593Z,82.60
2022-11-17T11:35:48.119Z,81.50
2022-11-17T11:38:52.666Z,82.40
2022-11-17T11:41:41.622Z,82.10
2022-11-17T11:44:37.788Z,79.40
2022-11-17T11:48:08.224Z,75.70
2022-11-17T11:50:52.891Z,75.80
2022-11-17T11:53:41.625Z,76.10
2022-11-17T11:56:25.788Z,77.30
2022-11-17T11:59:04.252Z,76.00
2022-11-17T12:02:13.272Z,76.70
2022-11-17T12:05:04.966Z,76.90
2022-11-17T12:07:52.466Z,76.40
2022-11-17T12:10:39.957Z,76.80
2022-11-17T12:13:17.403Z,75.90
2022-11-17T12:15:44.560Z,79.20
2022-11-17T12:18:14.567Z,78.50
2022-11-17T12:21:03.121Z,77.00
2022-11-17T12:23:49.456Z,72.80
2022-11-17T12:26:28.653Z,73.90
2022-11-17T12:29:20.169Z,74.10
2022-11-17T12:32:01.112Z,71.60
2022-11-17T12:34:37.318Z,76.50
2022-11-17T12:37:07.347Z,69.70
2022-11-17T12:39:59.051Z,74.80
2022-11-17T12:42:32.152Z,68.10
2022-11-17T12:45:13.409Z,73.90
2022-11-17T12:47:59.500Z,74.10
2022-11-17T12:50:53.877Z,74.60
2022-11-17T12:53:33.547Z,71.50
2022-11-17T12:56:33.471Z,70.50
2022-11-17T12:59:09.326Z,69.40
2022-11-17T13:01:57.899Z,75.20
2022-11-17T13:04:39.621Z,67.80
2022-11-17T13:07:21.223Z,69.50
2022-11-17T13:09:59.908Z,69.60
2022-11-17T13:12:30.746Z,70.40
2022-11-17T13:15:02.782Z,73.70
2022-11-17T13:17:42.734Z,68.90
2022-11-17T13:20:28.828Z,68.70
2022-11-17T13:23:23.719Z,68.30
2022-11-17T13:25:51.790Z,69.50
2022-11-17T13:28:32.763Z,73.40
2022-11-17T13:31:01.182Z,68.90
2022-11-17T13:33:30.491Z,72.90
2022-11-17T13:36:20.443Z,72.90
2022-11-17T13:38:51.218Z,67.80
2022-11-17T13:41:20.177Z,72.50
2022-11-17T13:43:49.496Z,68.70
2022-11-17T13:46:16.450Z,73.40
2022-11-17T13:48:46.937Z,72.60
2022-11-17T13:51:42.409Z,72.20
2022-11-17T13:54:12.348Z,67.50
2022-11-17T13:56:54.565Z,71.40
2022-11-17T13:59:31.195Z,71.10
2022-11-17T14:02:16.521Z,68.70
2022-11-17T14:05:16.754Z,66.60
2022-11-17T14:07:45.582Z,64.10
2022-11-17T14:10:29.371Z,70.40
2022-11-17T14:13:01.989Z,66.30
2022-11-17T14:15:32.391Z,67.20
2022-11-17T14:18:03.647Z,69.10
2022-11-17T14:20:35.416Z,69.80
2022-11-17T14:23:22.448Z,69.90
2022-11-17T14:25:50.166Z,65.70
2022-11-17T14:28:22.949Z,70.40
2022-11-17T14:30:53.487Z,68.40
2022-11-17T14:33:20.961Z,69.90
2022-11-17T14:35:59.127Z,70.50
2022-11-17T14:38:26.000Z,68.90
2022-11-17T14:40:53.729Z,70.70
2022-11-17T14:43:22.389Z,70.40
2022-11-17T14:45:50.349Z,70.30
2022-11-17T14:48:19.251Z,69.90
2022-11-17T14:50:47.612Z,69.70
2022-11-17T14:53:14.721Z,69.50
2022-11-17T14:55:41.548Z,69.50
2022-11-17T14:58:09.857Z,69.50
2022-11-17T15:00:36.919Z,69.60
2022-11-17T15:03:04.608Z,69.80
2022-11-17T15:05:31.545Z,69.80
2022-11-17T15:07:58.597Z,69.70
2022-11-17T15:10:25.362Z,69.90
2022-11-17T15:12:52.388Z,69.80
2022-11-17T15:15:19.854Z,69.70
2022-11-17T15:17:46.700Z,70.00
2022-11-17T15:20:13.643Z,70.20
2022-11-17T15:22:40.496Z,70.60
2022-11-17T15:25:08.415Z,70.20
2022-11-17T15:27:35.255Z,70.20
2022-11-17T15:30:02.297Z,70.20
2022-11-17T15:32:29.748Z,70.30
2022-11-17T15:34:56.605Z,70.40
2022-11-17T15:37:23.483Z,70.60
2022-11-17T15:39:50.346Z,70.80
2022-11-17T15:42:17.197Z,70.90
2022-11-17T15:44:44.166Z,70.90
2022-11-17T15:47:10.978Z,71.10
2022-11-17T15:49:37.857Z,71.10
2022-11-17T15:52:04.779Z,71.10
2022-11-17T15:54:31.708Z,71.30
2022-11-17T15:57:00.560Z,71.40
2022-11-17T15:59:27.381Z,71.50
2022-11-17T16:01:54.235Z,71.70
2022-11-17T16:04:21.622Z,71.80
2022-11-17T16:06:49.072Z,71.80
2022-11-17T16:09:16.359Z,71.70
2022-11-17T16:11:43.766Z,71.70
2022-11-17T16:14:11.696Z,71.70
2022-11-17T16:16:39.654Z,71.80
2022-11-17T16:19:07.114Z,71.80
2022-11-17T16:21:34.543Z,71.80
2022-11-17T16:24:02.225Z,72.00
2022-11-17T16:26:30.493Z,72.20
2022-11-17T16:29:07.048Z,72.30
2022-11-17T16:31:36.600Z,72.20
2022-11-17T16:34:07.412Z,72.70
2022-11-17T16:36:37.528Z,72.90
2022-11-17T16:39:08.171Z,71.90
2022-11-17T16:41:38.371Z,73.00
2022-11-17T16:44:23.242Z,73.10
2022-11-17T16:46:50.186Z,72.10
2022-11-17T16:49:19.236Z,73.30
2022-11-17T16:51:53.736Z,73.30
2022-11-17T16:54:21.343Z,73.10
2022-11-17T16:56:48.239Z,73.40
2022-11-17T16:59:15.743Z,73.40
2022-11-17T17:01:42.888Z,73.30
2022-11-17T17:04:12.286Z,73.30
2022-11-17T17:06:42.140Z,73.30
2022-11-17T17:09:11.602Z,73.40
2022-11-17T17:11:38.894Z,73.50
2022-11-17T17:14:09.633Z,73.70
2022-11-17T17:16:37.995Z,73.90
2022-11-17T17:19:08.202Z,74.10
2022-11-17T17:21:37.625Z,74.30
2022-11-17T17:24:05.895Z,74.40
2022-11-17T17:26:34.796Z,74.40
2022-11-17T17:29:04.190Z,74.40
2022-11-17T17:31:37.988Z,74.40
2022-11-17T17:34:07.198Z,74.40
2022-11-17T17:36:35.315Z,74.50
2022-11-17T17:39:03.603Z,74.50
2022-11-17T17:41:34.020Z,74.50
2022-11-17T17:44:06.569Z,74.50
2022-11-17T17:46:38.769Z,74.20
2022-11-17T17:49:06.538Z,74.10
2022-11-17T17:51:40.049Z,74.20
2022-11-17T17:54:07.781Z,74.00
2022-11-17T17:56:35.432Z,73.90
2022-11-17T17:59:02.383Z,73.90
2022-11-17T18:01:35.399Z,73.90
2022-11-17T18:04:05.556Z,73.90
2022-11-17T18:06:41.167Z,73.90
2022-11-17T18:09:10.780Z,73.80
2022-11-17T18:11:40.592Z,73.90
2022-11-17T18:14:09.912Z,74.00
2022-11-17T18:16:36.772Z,74.00
2022-11-17T18:19:07.133Z,74.10
2022-11-17T18:21:35.117Z,74.20
2022-11-17T18:24:03.364Z,74.30
2022-11-17T18:26:33.924Z,74.50
2022-11-17T18:29:06.624Z,74.50
2022-11-17T18:31:36.685Z,74.60
2022-11-17T18:34:22.901Z,74.60
2022-11-17T18:36:51.841Z,74.20
2022-11-17T18:39:19.672Z,74.70
2022-11-17T18:41:47.138Z,74.90
2022-11-17T18:44:17.100Z,75.00
2022-11-17T18:46:44.412Z,75.10
2022-11-17T18:49:12.176Z,75.10
2022-11-17T18:51:40.540Z,75.10
2022-11-17T18:54:07.937Z,75.10
2022-11-17T18:56:37.753Z,75.10
2022-11-17T18:59:11.476Z,75.20
2022-11-17T19:01:41.298Z,75.30
2022-11-17T19:04:08.730Z,75.40
2022-11-17T19:06:35.761Z,75.50
2022-11-17T19:09:02.837Z,75.60
2022-11-17T19:11:32.795Z,75.70
2022-11-17T19:14:05.426Z,75.70
2022-11-17T19:16:33.230Z,75.70
2022-11-17T19:19:00.379Z,75.70
2022-11-17T19:21:33.699Z,75.60
2022-11-17T19:24:03.476Z,75.60
2022-11-17T19:26:34.254Z,75.70
2022-11-17T19:29:05.160Z,75.80
2022-11-17T19:31:32.445Z,75.70
2022-11-17T19:33:59.957Z,75.80
2022-11-17T19:36:33.181Z,75.90
2022-11-17T19:39:03.526Z,75.70
2022-11-17T19:41:34.376Z,75.70
2022-11-17T19:44:04.113Z,75.70
2022-11-17T19:46:31.645Z,74.70
2022-11-17T19:48:59.220Z,75.70
2022-11-17T19:51:33.535Z,75.80
2022-11-17T19:54:07.219Z,75.60
2022-11-17T19:56:35.291Z,75.30
2022-11-17T19:59:03.556Z,75.70
2022-11-17T20:01:32.250Z,75.70
2022-11-17T20:04:01.529Z,75.70
2022-11-17T20:06:36.191Z,75.70
2022-11-17T20:09:09.075Z,75.70
2022-11-17T20:11:36.839Z,75.30
2022-11-17T20:14:04.080Z,75.40
2022-11-17T20:16:32.049Z,75.20
2022-11-17T20:19:03.022Z,75.20
2022-11-17T20:21:31.166Z,75.40
2022-11-17T20:24:02.203Z,75.20
2022-11-17T20:26:32.831Z,75.60
2022-11-17T20:29:00.638Z,75.10
2022-11-17T20:31:31.797Z,75.20
2022-11-17T20:34:00.894Z,75.10
2022-11-17T20:36:30.441Z,75.70
2022-11-17T20:39:00.656Z,75.50
2022-11-17T20:41:28.556Z,75.80
2022-11-17T20:43:58.482Z,76.20
2022-11-17T20:46:26.200Z,76.40
2022-11-17T20:48:53.621Z,76.60
2022-11-17T20:51:24.076Z,76.90
2022-11-17T20:53:51.423Z,77.10
2022-11-17T20:56:19.042Z,77.40
2022-11-17T20:58:46.326Z,77.60
2022-11-17T21:01:17.215Z,77.80
2022-11-17T21:03:45.510Z,77.80
2022-11-17T21:06:13.233Z,78.00
2022-11-17T21:08:42.235Z,78.10
2022-11-17T21:11:37.172Z,78.10
2022-11-17T21:14:07.039Z,78.20
2022-11-17T21:16:36.738Z,78.10
2022-11-17T21:19:03.912Z,78.20
2022-11-17T21:21:30.867Z,78.40
2022-11-17T21:23:58.011Z,78.50
2022-11-17T21:26:25.009Z,78.60
2022-11-17T21:28:52.359Z,78.50
2022-11-17T21:31:25.421Z,78.70
2022-11-17T21:34:04.443Z,78.50
2022-11-17T21:36:33.460Z,78.30
2022-11-17T21:39:00.537Z,78.70
2022-11-17T21:41:37.778Z,78.90
2022-11-17T21:44:05.420Z,78.80
2022-11-17T21:46:34.714Z,79.00
2022-11-17T21:49:01.692Z,79.10
2022-11-17T21:51:34.889Z,79.20
2022-11-17T21:54:05.593Z,78.80
2022-11-17T21:56:32.468Z,79.10
2022-11-17T21:59:03.440Z,79.20
2022-11-17T22:01:31.424Z,79.00
2022-11-17T22:03:58.649Z,79.20
2022-11-17T22:06:26.433Z,79.40
2022-11-17T22:08:55.372Z,79.60
2022-11-17T22:11:36.703Z,79.60
2022-11-17T22:14:14.137Z,79.60
2022-11-17T22:16:46.217Z,79.40
2022-11-17T22:19:15.926Z,79.70
2022-11-17T22:21:45.149Z,79.70
2022-11-17T22:24:12.992Z,79.70
2022-11-17T22:26:42.622Z,79.70
2022-11-17T22:29:21.916Z,79.90
2022-11-17T22:31:50.155Z,78.70
2022-11-17T22:34:17.980Z,79.70
2022-11-17T22:36:45.037Z,80.30
2022-11-17T22:39:12.206Z,80.60
2022-11-17T22:41:39.471Z,80.60
2022-11-17T22:44:06.504Z,80.50
2022-11-17T22:46:35.158Z,80.20
2022-11-17T22:49:02.097Z,80.30
2022-11-17T22:51:47.994Z,80.30
2022-11-17T22:54:14.853Z,81.10
2022-11-17T22:56:41.783Z,81.30
2022-11-17T22:59:09.068Z,81.50
2022-11-17T23:01:35.891Z,81.50
2022-11-17T23:04:02.711Z,81.20
2022-11-17T23:06:29.656Z,80.00
2022-11-17T23:08:58.236Z,79.40
2022-11-17T23:11:41.931Z,79.20
2022-11-17T23:14:12.717Z,78.80
2022-11-17T23:16:40.473Z,78.90
2022-11-17T23:19:11.140Z,78.90
2022-11-17T23:21:38.019Z,79.10
2022-11-17T23:24:05.398Z,79.10
2022-11-17T23:26:32.244Z,79.30
2022-11-17T23:28:59.174Z,79.40
2022-11-17T23:31:29.154Z,79.60
2022-11-17T23:33:56.226Z,79.60
2022-11-17T23:36:24.153Z,79.70
2022-11-17T23:38:52.094Z,80.00
2022-11-17T23:41:20.863Z,80.10
2022-11-17T23:43:53.974Z,80.00
2022-11-17T23:46:25.342Z,79.60
2022-11-17T23:48:53.844Z,79.90
2022-11-17T23:51:25.382Z,80.10
2022-11-17T23:53:53.198Z,80.30
2022-11-17T23:56:21.518Z,80.60
2022-11-17T23:58:49.993Z,80.70
